createdAt,value
2023-04-13T00:02:19.715Z,41128.34
2023-04-13T00:04:46.267Z,41144.31
2023-04-13T00:07:16.928Z,41144.31
2023-04-13T00:09:47.200Z,41120.34
2023-04-13T00:12:15.675Z,41124.34
2023-04-13T00:14:43.887Z,41164.28
2023-04-13T00:17:10.390Z,41140.31
2023-04-13T00:19:36.886Z,41126.34
2023-04-13T00:22:04.347Z,41154.28
2023-04-13T00:24:30.920Z,41198.19
2023-04-13T00:26:57.427Z,41158.28
2023-04-13T00:29:23.880Z,41182.22
2023-04-13T00:31:50.287Z,41176.25
2023-04-13T00:34:16.649Z,41196.19
2023-04-13T00:36:43.035Z,41204.19
2023-04-13T00:39:09.911Z,41216.16
2023-04-13T00:41:37.456Z,41222.16
2023-04-13T00:44:03.994Z,41224.16
2023-04-13T00:46:31.421Z,41252.09
2023-04-13T00:49:01.559Z,41256.09
2023-04-13T00:51:30.235Z,41256.09
2023-04-13T00:53:59.004Z,41250.09
2023-04-13T00:56:29.271Z,41250.09
2023-04-13T00:58:57.722Z,41260.06
2023-04-13T01:01:25.941Z,41256.09
2023-04-13T01:03:53.459Z,41268.06
2023-04-13T01:06:28.036Z,41248.09
2023-04-13T01:09:08.734Z,41268.06
2023-04-13T01:11:45.381Z,41276.03
2023-04-13T01:14:37.628Z,41300.00
2023-04-13T01:17:17.565Z,41280.03
2023-04-13T01:20:13.378Z,41268.06
2023-04-13T01:22:45.535Z,41268.06
2023-04-13T01:25:16.783Z,41252.09
2023-04-13T01:27:47.885Z,41282.03
2023-04-13T01:30:17.018Z,41264.06
2023-04-13T01:32:45.621Z,41248.09
2023-04-13T01:35:12.496Z,41270.06
2023-04-13T01:37:43.092Z,41244.09
2023-04-13T01:40:13.466Z,41246.09
2023-04-13T01:42:44.082Z,41256.09
2023-04-13T01:45:20.210Z,41246.09
2023-04-13T01:48:06.781Z,41260.06
2023-04-13T01:50:56.612Z,41240.13
2023-04-13T01:53:44.066Z,41264.06
2023-04-13T01:56:15.362Z,41232.13
2023-04-13T01:58:43.262Z,41242.09
2023-04-13T02:01:14.384Z,41244.09
2023-04-13T02:03:43.209Z,41236.13
2023-04-13T02:06:10.497Z,41266.06
2023-04-13T02:08:41.960Z,41250.09
2023-04-13T02:11:10.088Z,41284.03
2023-04-13T02:13:36.476Z,41282.03
2023-04-13T02:16:04.261Z,41294.00
2023-04-13T02:18:30.669Z,41288.00
2023-04-13T02:21:12.123Z,41290.00
2023-04-13T02:23:40.440Z,41292.00
2023-04-13T02:26:16.190Z,41307.97
2023-04-13T02:28:43.016Z,41260.06
2023-04-13T02:31:09.632Z,41280.03
2023-04-13T02:33:36.350Z,41280.03
2023-04-13T02:36:04.016Z,41280.03
2023-04-13T02:38:37.197Z,41244.09
2023-04-13T02:41:10.795Z,41252.09
2023-04-13T02:43:37.211Z,41240.13
2023-04-13T02:46:04.226Z,41256.09
2023-04-13T02:48:36.528Z,41272.06
2023-04-13T02:51:05.309Z,41250.09
2023-04-13T02:53:35.057Z,41234.13
2023-04-13T02:56:06.617Z,41250.09
2023-04-13T02:58:33.777Z,41236.13
2023-04-13T03:01:04.624Z,41264.06
2023-04-13T03:03:31.624Z,41236.13
2023-04-13T03:05:58.609Z,41256.09
2023-04-13T03:08:36.799Z,41240.13
2023-04-13T03:11:16.204Z,41256.09
2023-04-13T03:13:49.454Z,41272.06
2023-04-13T03:16:17.589Z,41270.06
2023-04-13T03:18:45.389Z,41323.94
2023-04-13T03:21:15.943Z,41323.94
2023-04-13T03:23:57.955Z,41313.97
2023-04-13T03:26:25.124Z,41331.94
2023-04-13T03:28:52.999Z,41311.97
2023-04-13T03:31:22.177Z,41349.88
2023-04-13T03:33:51.024Z,41303.97
2023-04-13T03:36:17.681Z,41288.00
2023-04-13T03:38:44.092Z,41298.00
2023-04-13T03:41:11.331Z,41292.00
2023-04-13T03:43:38.290Z,41319.94
2023-04-13T03:46:09.542Z,41302.00
2023-04-13T03:48:37.337Z,41335.91
2023-04-13T03:51:06.577Z,41345.91
2023-04-13T03:53:44.708Z,41321.94
2023-04-13T03:56:11.195Z,41345.91
2023-04-13T03:58:38.749Z,41353.88
2023-04-13T04:01:06.910Z,41319.94
2023-04-13T04:03:43.934Z,41339.91
2023-04-13T04:06:11.264Z,41331.94
2023-04-13T04:08:43.108Z,41347.91
2023-04-13T04:11:22.195Z,41339.91
2023-04-13T04:13:48.925Z,41353.88
2023-04-13T04:16:16.548Z,41361.88
2023-04-13T04:18:48.977Z,41351.88
2023-04-13T04:21:21.519Z,41387.81
2023-04-13T04:23:48.364Z,41377.84
2023-04-13T04:26:17.782Z,41411.78
2023-04-13T04:29:01.735Z,41411.78
2023-04-13T04:31:37.062Z,41399.78
2023-04-13T04:34:06.141Z,41403.78
2023-04-13T04:36:36.216Z,41423.75
2023-04-13T04:39:04.505Z,41423.75
2023-04-13T04:41:37.633Z,41423.75
2023-04-13T04:44:08.098Z,41419.75
2023-04-13T04:46:41.548Z,41435.72
2023-04-13T04:49:11.744Z,41427.75
2023-04-13T04:51:39.117Z,41423.75
2023-04-13T04:54:07.264Z,41451.69
2023-04-13T04:56:33.941Z,41431.72
2023-04-13T04:59:00.684Z,41465.66
2023-04-13T05:01:45.578Z,41451.69
2023-04-13T05:04:13.168Z,41495.59
2023-04-13T05:06:42.683Z,41471.66
2023-04-13T05:09:15.206Z,41489.63
2023-04-13T05:11:47.311Z,41479.63
2023-04-13T05:14:15.257Z,41497.59
2023-04-13T05:16:41.699Z,41515.56
2023-04-13T05:19:15.872Z,41491.63
2023-04-13T05:22:01.934Z,41517.56
2023-04-13T05:24:33.758Z,41511.56
2023-04-13T05:27:02.107Z,41491.63
2023-04-13T05:29:29.042Z,41509.56
2023-04-13T05:31:59.063Z,41521.56
2023-04-13T05:34:26.236Z,41525.53
2023-04-13T05:37:10.362Z,41509.56
2023-04-13T05:39:36.802Z,41519.56
2023-04-13T05:42:04.000Z,41507.59
2023-04-13T05:44:34.058Z,41523.56
2023-04-13T05:47:02.133Z,41511.56
2023-04-13T05:49:31.712Z,41519.56
2023-04-13T05:51:59.134Z,41499.59
2023-04-13T05:54:36.227Z,41515.56
2023-04-13T05:57:02.976Z,41481.63
2023-04-13T05:59:29.701Z,41493.59
2023-04-13T06:01:59.096Z,41497.59
2023-04-13T06:04:27.230Z,41479.63
2023-04-13T06:06:55.891Z,41495.59
2023-04-13T06:09:22.570Z,41471.66
2023-04-13T06:11:49.001Z,41479.63
2023-04-13T06:14:16.447Z,41481.63
2023-04-13T06:16:43.501Z,41467.66
2023-04-13T06:19:12.298Z,41473.66
2023-04-13T06:21:38.714Z,41447.69
2023-04-13T06:24:05.504Z,41455.69
2023-04-13T06:26:35.065Z,41451.69
2023-04-13T06:29:02.765Z,41463.66
2023-04-13T06:31:34.595Z,41463.66
2023-04-13T06:34:05.295Z,41443.72
2023-04-13T06:36:35.656Z,41463.66
2023-04-13T06:39:02.745Z,41453.69
2023-04-13T06:41:32.097Z,41443.72
2023-04-13T06:44:13.620Z,41451.69
2023-04-13T06:46:55.378Z,41447.69
2023-04-13T06:49:23.422Z,41439.72
2023-04-13T06:51:51.327Z,41455.69
2023-04-13T06:54:17.753Z,41411.78
2023-04-13T06:56:48.438Z,41437.72
2023-04-13T06:59:14.966Z,41407.78
2023-04-13T07:01:41.476Z,41425.75
2023-04-13T07:04:08.157Z,41435.72
2023-04-13T07:06:35.133Z,41431.72
2023-04-13T07:09:01.874Z,41455.69
2023-04-13T07:11:29.873Z,41419.75
2023-04-13T07:13:56.808Z,41427.75
2023-04-13T07:16:24.465Z,41419.75
2023-04-13T07:18:51.796Z,41423.75
2023-04-13T07:21:18.944Z,41431.72
2023-04-13T07:23:54.328Z,41435.72
2023-04-13T07:26:21.005Z,41423.75
2023-04-13T07:28:47.489Z,41415.75
2023-04-13T07:31:14.307Z,41431.72
2023-04-13T07:33:44.799Z,41427.75
2023-04-13T07:36:12.658Z,41445.69
2023-04-13T07:38:41.121Z,41387.81
2023-04-13T07:41:08.697Z,41417.75
2023-04-13T07:43:37.196Z,41419.75
2023-04-13T07:46:09.272Z,41405.78
2023-04-13T07:48:36.036Z,41399.78
2023-04-13T07:51:17.478Z,41415.75
2023-04-13T07:53:44.564Z,41431.72
2023-04-13T07:56:11.449Z,41405.78
2023-04-13T07:58:38.314Z,41407.78
2023-04-13T08:01:05.787Z,41387.81
2023-04-13T08:03:36.698Z,41411.78
2023-04-13T08:06:10.607Z,41421.75
2023-04-13T08:08:37.259Z,41409.78
2023-04-13T08:11:04.344Z,41435.72
2023-04-13T08:13:34.054Z,41427.75
2023-04-13T08:16:00.631Z,41397.78
2023-04-13T08:18:28.014Z,41427.75
2023-04-13T08:20:55.003Z,41431.72
2023-04-13T08:23:23.765Z,41399.78
2023-04-13T08:25:50.363Z,41425.75
2023-04-13T08:28:16.920Z,41411.78
2023-04-13T08:30:43.812Z,41407.78
2023-04-13T08:33:11.045Z,41399.78
2023-04-13T08:35:39.327Z,41385.81
2023-04-13T08:38:07.689Z,41415.75
2023-04-13T08:40:38.510Z,41395.81
2023-04-13T08:43:07.555Z,41395.81
2023-04-13T08:45:34.986Z,41427.75
2023-04-13T08:48:02.668Z,41399.78
2023-04-13T08:50:32.482Z,41407.78
2023-04-13T08:53:00.266Z,41389.81
2023-04-13T08:55:27.012Z,41399.78
2023-04-13T08:57:58.120Z,41379.84
2023-04-13T09:00:25.385Z,41377.84
2023-04-13T09:03:04.972Z,41427.75
2023-04-13T09:05:39.038Z,41407.78
2023-04-13T09:08:08.169Z,41419.75
2023-04-13T09:10:37.190Z,41421.75
2023-04-13T09:13:05.411Z,41425.75
2023-04-13T09:15:32.750Z,41413.75
2023-04-13T09:18:12.503Z,41423.75
2023-04-13T09:20:55.034Z,41399.78
2023-04-13T09:23:21.519Z,41403.78
2023-04-13T09:25:47.988Z,41391.81
2023-04-13T09:28:21.253Z,41409.78
2023-04-13T09:30:47.712Z,41371.84
2023-04-13T09:33:16.268Z,41383.81
2023-04-13T09:35:42.664Z,41375.84
2023-04-13T09:38:11.597Z,41347.91
2023-04-13T09:40:47.975Z,41347.91
2023-04-13T09:43:14.623Z,41323.94
2023-04-13T09:45:44.289Z,41335.91
2023-04-13T09:48:21.629Z,41347.91
2023-04-13T09:51:00.978Z,41315.97
2023-04-13T09:53:30.914Z,41317.97
2023-04-13T09:55:58.932Z,41315.97
2023-04-13T09:58:26.297Z,41331.94
2023-04-13T10:00:53.830Z,41290.00
2023-04-13T10:03:22.440Z,41296.00
2023-04-13T10:08:27.306Z,41303.97
2023-04-13T10:11:02.064Z,41268.06
2023-04-13T10:13:41.318Z,41250.09
2023-04-13T10:16:36.186Z,41276.03
2023-04-13T10:19:08.834Z,41307.97
2023-04-13T10:21:43.445Z,41264.06
2023-04-13T10:24:12.663Z,41256.09
2023-04-13T10:26:41.416Z,41234.13
2023-04-13T10:29:09.065Z,41264.06
2023-04-13T10:31:46.411Z,41250.09
2023-04-13T10:34:29.460Z,41248.09
2023-04-13T10:36:58.564Z,41216.16
2023-04-13T10:39:27.379Z,41208.19
2023-04-13T10:42:00.594Z,41232.13
2023-04-13T10:44:28.047Z,41208.19
2023-04-13T10:46:54.677Z,41194.22
2023-04-13T10:49:31.312Z,41230.13
2023-04-13T10:51:57.775Z,41220.16
2023-04-13T10:54:29.593Z,41224.16
2023-04-13T10:57:01.631Z,41204.19
2023-04-13T10:59:58.644Z,41182.22
2023-04-13T11:02:31.561Z,41142.31
2023-04-13T11:04:59.506Z,41134.34
2023-04-13T11:07:27.070Z,41156.28
2023-04-13T11:12:28.964Z,41188.22
2023-04-13T11:14:55.459Z,41138.31
2023-04-13T11:17:22.179Z,41144.31
2023-04-13T11:19:50.837Z,41118.38
2023-04-13T11:22:25.307Z,41148.31
2023-04-13T11:24:51.997Z,41108.38
2023-04-13T11:27:23.385Z,41090.41
2023-04-13T11:30:05.592Z,41144.31
2023-04-13T11:32:37.957Z,41100.41
2023-04-13T11:35:09.153Z,41086.44
2023-04-13T11:37:40.694Z,41100.41
2023-04-13T11:40:21.183Z,41120.34
2023-04-13T11:42:53.390Z,41098.41
2023-04-13T11:45:22.319Z,41104.38
2023-04-13T11:47:53.283Z,41170.25
2023-04-13T11:50:21.355Z,41140.31
2023-04-13T11:52:50.227Z,41100.41
2023-04-13T11:55:23.302Z,41120.34
2023-04-13T11:57:52.272Z,41176.25
2023-04-13T12:00:24.038Z,41148.31
2023-04-13T12:05:32.728Z,41070.47
2023-04-13T12:08:00.842Z,41096.41
2023-04-13T12:10:40.344Z,41072.47
2023-04-13T12:16:03.650Z,41092.41
2023-04-13T12:18:37.016Z,41072.47
2023-04-13T12:21:05.739Z,41072.47
2023-04-13T12:23:32.671Z,40926.75
2023-04-13T12:26:32.156Z,40924.78
2023-04-13T12:28:58.754Z,40910.81
2023-04-13T12:31:25.323Z,40723.19
2023-04-13T12:33:52.007Z,40797.03
2023-04-13T12:36:18.460Z,40834.97
2023-04-13T12:38:45.781Z,40663.34
2023-04-13T12:41:12.153Z,40555.56
2023-04-13T12:43:38.567Z,40497.72
2023-04-13T12:46:05.095Z,40461.78
2023-04-13T12:48:31.481Z,40362.00
2023-04-13T12:50:57.962Z,40350.03
2023-04-13T12:53:24.448Z,40350.03
2023-04-13T12:55:50.870Z,40278.22
2023-04-13T12:58:17.258Z,40234.31
2023-04-13T13:00:43.674Z,40252.25
2023-04-13T13:03:14.245Z,40198.41
2023-04-13T13:05:41.748Z,40138.53
2023-04-13T13:08:08.853Z,40016.81
2023-04-13T13:10:36.823Z,39847.22
2023-04-13T13:13:04.060Z,39815.31
2023-04-13T13:15:31.657Z,39769.44
2023-04-13T13:18:00.659Z,39847.22
2023-04-13T13:20:27.159Z,39879.16
2023-04-13T13:22:53.554Z,39751.47
2023-04-13T13:25:20.229Z,39755.47
2023-04-13T13:30:16.633Z,39837.25
2023-04-13T13:32:43.071Z,39743.50
2023-04-13T13:35:10.629Z,39647.72
2023-04-13T13:37:37.390Z,39635.75
2023-04-13T13:40:12.634Z,39663.69
2023-04-13T13:42:50.721Z,39697.59
2023-04-13T13:45:18.664Z,39575.91
2023-04-13T13:47:50.629Z,39530.03
2023-04-13T13:50:17.669Z,39508.09
2023-04-13T13:53:01.562Z,39464.19
2023-04-13T13:55:33.148Z,39406.34
2023-04-13T13:57:59.541Z,39470.19
2023-04-13T14:00:26.972Z,39348.50
2023-04-13T14:02:53.550Z,39338.53
2023-04-13T14:05:21.756Z,39356.47
2023-04-13T14:07:48.334Z,39426.28
2023-04-13T14:10:15.021Z,39442.25
2023-04-13T14:12:44.678Z,39392.38
2023-04-13T14:15:15.059Z,39555.97
2023-04-13T14:17:41.722Z,39546.00
2023-04-13T14:20:09.317Z,39557.97
2023-04-13T14:22:40.438Z,39392.38
2023-04-13T14:25:09.205Z,39348.50
2023-04-13T14:27:36.136Z,39123.09
2023-04-13T14:30:02.957Z,39021.34
2023-04-13T14:32:29.556Z,39007.41
2023-04-13T14:35:00.028Z,38965.50
2023-04-13T14:37:27.754Z,38805.94
2023-04-13T14:39:57.469Z,38861.78
2023-04-13T14:42:29.560Z,38869.78
2023-04-13T14:44:56.671Z,38837.84
2023-04-13T14:47:23.137Z,38786.00
2023-04-13T14:49:49.888Z,38793.97
2023-04-13T14:52:16.298Z,38690.28
2023-04-13T14:54:43.125Z,38572.59
2023-04-13T14:57:10.400Z,38588.56
2023-04-13T14:59:38.109Z,38610.50
2023-04-13T15:02:05.648Z,38438.97
2023-04-13T15:04:32.336Z,38303.38
2023-04-13T15:06:58.888Z,38271.47
2023-04-13T15:09:25.874Z,38227.59
2023-04-13T15:11:52.517Z,38105.94
2023-04-13T15:14:19.045Z,38032.16
2023-04-13T15:16:45.708Z,38008.25
2023-04-13T15:19:12.805Z,38020.22
2023-04-13T15:21:39.742Z,37956.41
2023-04-13T15:24:06.940Z,37972.34
2023-04-13T15:26:40.300Z,37916.53
2023-04-13T15:29:07.834Z,37944.44
2023-04-13T15:31:38.839Z,37928.47
2023-04-13T15:34:08.297Z,37952.41
2023-04-13T15:36:36.357Z,37900.56
2023-04-13T15:39:04.377Z,37812.84
2023-04-13T15:41:31.576Z,37816.81
2023-04-13T15:44:00.068Z,37766.97
2023-04-13T15:46:29.686Z,37757.00
2023-04-13T15:48:56.272Z,37792.91
2023-04-13T15:51:22.820Z,37645.34
2023-04-13T15:53:49.258Z,37629.41
2023-04-13T15:56:15.707Z,37645.34
2023-04-13T15:58:42.217Z,37645.34
2023-04-13T16:01:11.078Z,37641.38
2023-04-13T16:03:38.325Z,37641.38
2023-04-13T16:06:04.967Z,37597.50
2023-04-13T16:08:31.431Z,37605.47
2023-04-13T16:10:57.872Z,37565.59
2023-04-13T16:13:26.877Z,37563.59
2023-04-13T16:15:58.611Z,37589.53
2023-04-13T16:18:29.993Z,37541.69
2023-04-13T16:21:02.534Z,37507.78
2023-04-13T16:23:29.620Z,37495.81
2023-04-13T16:25:56.290Z,37461.94
2023-04-13T16:28:22.915Z,37499.81
2023-04-13T16:30:49.416Z,37491.84
2023-04-13T16:33:16.000Z,37479.88
2023-04-13T16:35:42.428Z,37445.97
2023-04-13T16:38:08.892Z,37469.91
2023-04-13T16:40:36.241Z,37414.06
2023-04-13T16:43:05.789Z,37457.94
2023-04-13T16:45:32.889Z,37434.00
2023-04-13T16:47:59.385Z,37434.00
2023-04-13T16:50:30.359Z,37434.00
2023-04-13T16:52:58.293Z,37428.03
2023-04-13T16:55:26.681Z,37398.13
2023-04-13T16:57:53.148Z,37440.00
2023-04-13T17:00:20.176Z,37404.09
2023-04-13T17:02:47.557Z,37378.19
2023-04-13T17:05:14.067Z,37473.88
2023-04-13T17:07:42.759Z,37445.97
2023-04-13T17:10:09.925Z,37465.91
2023-04-13T17:12:36.584Z,37402.13
2023-04-13T17:15:05.017Z,37346.28
2023-04-13T17:17:31.438Z,37332.34
2023-04-13T17:19:57.990Z,37276.53
2023-04-13T17:22:24.843Z,37218.69
2023-04-13T17:24:51.493Z,37218.69
2023-04-13T17:27:17.975Z,37182.81
2023-04-13T17:29:44.375Z,37158.91
2023-04-13T17:32:10.812Z,37150.94
2023-04-13T17:34:37.629Z,37262.56
2023-04-13T17:37:04.051Z,37250.59
2023-04-13T17:39:30.810Z,37214.72
2023-04-13T17:41:57.232Z,37284.50
2023-04-13T17:44:23.665Z,37254.59
2023-04-13T17:46:51.483Z,37272.53
2023-04-13T17:49:18.279Z,37234.66
2023-04-13T17:51:47.576Z,37194.78
2023-04-13T17:54:13.966Z,37166.88
2023-04-13T17:56:40.379Z,37174.84
2023-04-13T17:59:07.182Z,37182.81
2023-04-13T18:01:33.719Z,37222.69
2023-04-13T18:04:00.335Z,37312.41
2023-04-13T18:06:27.190Z,37298.44
2023-04-13T18:08:53.712Z,37270.53
2023-04-13T18:11:20.349Z,37318.38
2023-04-13T18:13:47.091Z,37286.50
2023-04-13T18:16:14.509Z,37250.59
2023-04-13T18:18:41.041Z,37234.66
2023-04-13T18:21:08.151Z,37276.53
2023-04-13T18:23:34.654Z,37354.28
2023-04-13T18:26:02.183Z,37368.22
2023-04-13T18:28:29.552Z,37370.22
2023-04-13T18:31:00.553Z,37406.09
2023-04-13T18:33:28.154Z,37338.31
2023-04-13T18:35:54.637Z,37374.22
2023-04-13T18:38:21.384Z,37382.19
2023-04-13T18:40:49.137Z,37398.13
2023-04-13T18:43:16.463Z,37364.25
2023-04-13T18:45:43.103Z,37358.25
2023-04-13T18:48:09.796Z,37386.16
2023-04-13T18:50:36.969Z,37380.19
2023-04-13T18:53:03.739Z,37382.19
2023-04-13T18:55:30.264Z,37432.03
2023-04-13T18:57:57.241Z,37445.97
2023-04-13T19:00:23.841Z,37410.09
2023-04-13T19:02:52.407Z,37410.09
2023-04-13T19:05:19.275Z,37443.97
2023-04-13T19:07:59.231Z,37477.88
2023-04-13T19:10:27.738Z,37463.91
2023-04-13T19:12:54.635Z,37477.88
2023-04-13T19:15:22.028Z,37479.88
2023-04-13T19:17:50.253Z,37485.84
2023-04-13T19:20:16.881Z,37483.84
2023-04-13T19:22:43.385Z,37457.94
2023-04-13T19:25:14.590Z,37487.84
2023-04-13T19:27:43.072Z,37519.75
2023-04-13T19:30:09.926Z,37513.75
2023-04-13T19:32:37.447Z,37438.00
2023-04-13T19:35:05.120Z,37318.38
2023-04-13T19:37:32.422Z,37304.44
2023-04-13T19:39:59.025Z,37302.44
2023-04-13T19:42:25.444Z,37322.38
2023-04-13T19:44:52.476Z,37298.44
2023-04-13T19:47:18.870Z,37304.44
2023-04-13T19:49:45.739Z,37286.50
2023-04-13T19:52:16.155Z,37388.16
2023-04-13T19:54:45.999Z,37350.28
2023-04-13T19:57:13.271Z,37346.28
2023-04-13T19:59:41.183Z,37390.16
2023-04-13T20:02:09.571Z,37372.22
2023-04-13T20:04:36.958Z,37386.16
2023-04-13T20:07:03.610Z,37330.34
2023-04-13T20:09:30.469Z,37346.28
2023-04-13T20:11:56.858Z,37412.09
2023-04-13T20:14:23.252Z,37384.16
2023-04-13T20:16:49.927Z,37388.16
2023-04-13T20:19:16.413Z,37402.13
2023-04-13T20:21:46.436Z,37378.19
2023-04-13T20:24:12.840Z,37398.13
2023-04-13T20:26:39.696Z,37386.16
2023-04-13T20:29:06.093Z,37416.06
2023-04-13T20:31:33.134Z,37430.03
2023-04-13T20:34:00.001Z,37436.00
2023-04-13T20:36:26.930Z,37430.03
2023-04-13T20:38:54.603Z,37438.00
2023-04-13T20:41:21.874Z,37463.91
2023-04-13T20:43:50.579Z,37449.97
2023-04-13T20:46:17.079Z,37473.88
2023-04-13T20:51:14.085Z,37477.88
2023-04-13T20:53:40.444Z,37499.81
2023-04-13T20:56:07.566Z,37529.72
2023-04-13T20:58:33.944Z,37563.59
2023-04-13T21:01:01.189Z,37571.59
2023-04-13T21:03:30.697Z,37607.47
2023-04-13T21:05:58.127Z,37601.50
2023-04-13T21:08:24.854Z,37629.41
2023-04-13T21:10:51.358Z,37669.28
2023-04-13T21:13:18.123Z,37653.31
2023-04-13T21:15:44.843Z,37713.13
2023-04-13T21:18:11.770Z,37753.03
2023-04-13T21:20:43.297Z,37709.16
2023-04-13T21:23:09.880Z,37711.16
2023-04-13T21:25:37.323Z,37713.13
2023-04-13T21:28:03.992Z,37757.00
2023-04-13T21:30:30.551Z,37757.00
2023-04-13T21:32:57.020Z,37778.94
2023-04-13T21:35:23.456Z,37828.78
2023-04-13T21:37:49.884Z,37826.78
2023-04-13T21:40:18.010Z,37786.91
2023-04-13T21:42:44.428Z,37796.88
2023-04-13T21:45:11.612Z,37844.75
2023-04-13T21:47:38.016Z,37822.81
2023-04-13T21:50:05.425Z,37814.81
2023-04-13T21:52:31.857Z,37782.94
2023-04-13T21:54:59.759Z,37729.09
2023-04-13T21:57:26.481Z,37659.31
2023-04-13T21:59:54.460Z,37657.31
2023-04-13T22:02:21.101Z,37685.22
2023-04-13T22:04:47.651Z,37671.28
2023-04-13T22:07:14.117Z,37701.19
2023-04-13T22:09:41.091Z,37715.13
2023-04-13T22:12:10.283Z,37721.13
2023-04-13T22:14:36.815Z,37745.03
2023-04-13T22:17:03.672Z,37764.97
2023-04-13T22:19:30.346Z,37802.88
2023-04-13T22:21:56.786Z,37772.97
2023-04-13T22:24:23.519Z,37820.81
2023-04-13T22:26:49.898Z,37790.91
2023-04-13T22:29:16.279Z,37766.97
2023-04-13T22:31:43.103Z,37792.91
2023-04-13T22:34:09.533Z,37753.03
2023-04-13T22:36:35.922Z,37776.94
2023-04-13T22:39:02.604Z,37780.94
2023-04-13T22:41:29.145Z,37816.81
2023-04-13T22:43:55.618Z,37838.75
2023-04-13T22:46:22.965Z,37844.75
2023-04-13T22:48:49.533Z,37832.78
2023-04-13T22:51:16.246Z,37824.81
2023-04-13T22:53:42.627Z,37832.78
2023-04-13T22:56:09.137Z,37804.84
2023-04-13T22:58:35.540Z,37832.78
2023-04-13T23:01:02.785Z,37848.72
2023-04-13T23:03:29.247Z,37818.81
2023-04-13T23:05:55.963Z,37858.69
2023-04-13T23:08:22.388Z,37852.72
2023-04-13T23:10:49.261Z,37852.72
2023-04-13T23:13:15.701Z,37848.72
2023-04-13T23:15:42.197Z,37880.63
2023-04-13T23:18:08.649Z,37896.59
2023-04-13T23:20:35.072Z,37896.59
2023-04-13T23:23:01.689Z,37892.59
2023-04-13T23:25:28.185Z,37892.59
2023-04-13T23:27:54.630Z,37856.69
2023-04-13T23:30:21.486Z,37908.53
2023-04-13T23:32:47.986Z,37920.50
2023-04-13T23:35:14.534Z,37910.53
2023-04-13T23:37:42.068Z,37944.44
2023-04-13T23:40:09.095Z,37942.44
2023-04-13T23:42:35.745Z,37968.38
2023-04-13T23:45:02.623Z,37990.28
2023-04-13T23:47:29.069Z,38002.25
2023-04-13T23:49:55.742Z,38016.22
2023-04-13T23:52:22.378Z,38044.13
2023-04-13T23:54:48.763Z,38078.03
2023-04-13T23:57:15.471Z,38084.00
2023-04-13T23:59:41.840Z,38141.84
